sensor_id;sensor_type;location;lat;lon;timestamp;P1;durP1;ratioP1;P2;durP2;ratioP2
81374;SDS011;70828;51.158;4.998;2023-08-06T00:00:57;4.90;;;1.40;;
81374;SDS011;70828;51.158;4.998;2023-08-06T00:03:24;7.07;;;1.45;;
81374;SDS011;70828;51.158;4.998;2023-08-06T00:05:51;4.30;;;1.83;;
81374;SDS011;70828;51.158;4.998;2023-08-06T00:08:17;3.60;;;1.40;;
81374;SDS011;70828;51.158;4.998;2023-08-06T00:10:46;3.03;;;1.30;;
81374;SDS011;70828;51.158;4.998;2023-08-06T00:13:13;4.97;;;1.38;;
81374;SDS011;70828;51.158;4.998;2023-08-06T00:15:40;3.40;;;1.20;;
81374;SDS011;70828;51.158;4.998;2023-08-06T00:18:07;4.00;;;1.23;;
81374;SDS011;70828;51.158;4.998;2023-08-06T00:20:33;4.72;;;1.35;;
81374;SDS011;70828;51.158;4.998;2023-08-06T00:23:00;1.88;;;1.20;;
81374;SDS011;70828;51.158;4.998;2023-08-06T00:25:27;5.68;;;1.55;;
81374;SDS011;70828;51.158;4.998;2023-08-06T00:27:55;3.90;;;1.73;;
81374;SDS011;70828;51.158;4.998;2023-08-06T00:30:22;3.03;;;1.08;;
81374;SDS011;70828;51.158;4.998;2023-08-06T00:32:48;4.63;;;0.93;;
81374;SDS011;70828;51.158;4.998;2023-08-06T00:35:15;7.55;;;1.50;;
81374;SDS011;70828;51.158;4.998;2023-08-06T00:37:42;3.22;;;1.30;;
81374;SDS011;70828;51.158;4.998;2023-08-06T00:40:08;4.20;;;1.10;;
81374;SDS011;70828;51.158;4.998;2023-08-06T00:42:35;4.07;;;1.60;;
81374;SDS011;70828;51.158;4.998;2023-08-06T00:45:04;2.55;;;0.98;;
81374;SDS011;70828;51.158;4.998;2023-08-06T00:47:31;4.05;;;1.00;;
81374;SDS011;70828;51.158;4.998;2023-08-06T00:49:57;2.33;;;0.90;;
81374;SDS011;70828;51.158;4.998;2023-08-06T00:52:24;2.10;;;1.10;;
81374;SDS011;70828;51.158;4.998;2023-08-06T00:54:51;6.05;;;1.10;;
81374;SDS011;70828;51.158;4.998;2023-08-06T00:57:18;4.38;;;1.13;;
81374;SDS011;70828;51.158;4.998;2023-08-06T00:59:45;2.40;;;1.05;;
81374;SDS011;70828;51.158;4.998;2023-08-06T01:02:13;3.25;;;1.00;;
81374;SDS011;70828;51.158;4.998;2023-08-06T01:04:39;3.97;;;0.90;;
81374;SDS011;70828;51.158;4.998;2023-08-06T01:07:09;2.90;;;1.13;;
81374;SDS011;70828;51.158;4.998;2023-08-06T01:09:42;1.42;;;0.70;;
81374;SDS011;70828;51.158;4.998;2023-08-06T01:12:15;2.35;;;1.00;;
81374;SDS011;70828;51.158;4.998;2023-08-06T01:14:48;2.08;;;1.00;;
81374;SDS011;70828;51.158;4.998;2023-08-06T01:17:21;5.53;;;1.00;;
81374;SDS011;70828;51.158;4.998;2023-08-06T01:19:51;2.97;;;1.25;;
81374;SDS011;70828;51.158;4.998;2023-08-06T01:22:19;3.45;;;0.80;;
81374;SDS011;70828;51.158;4.998;2023-08-06T01:24:47;2.05;;;0.90;;
81374;SDS011;70828;51.158;4.998;2023-08-06T01:27:17;1.77;;;0.93;;
81374;SDS011;70828;51.158;4.998;2023-08-06T01:29:51;3.42;;;1.00;;
81374;SDS011;70828;51.158;4.998;2023-08-06T01:32:23;1.52;;;1.02;;
81374;SDS011;70828;51.158;4.998;2023-08-06T01:34:51;2.33;;;0.95;;
81374;SDS011;70828;51.158;4.998;2023-08-06T01:37:19;3.50;;;1.10;;
81374;SDS011;70828;51.158;4.998;2023-08-06T01:39:46;10.02;;;1.05;;
81374;SDS011;70828;51.158;4.998;2023-08-06T01:42:13;6.03;;;1.10;;
81374;SDS011;70828;51.158;4.998;2023-08-06T01:44:40;2.55;;;1.05;;
81374;SDS011;70828;51.158;4.998;2023-08-06T01:47:06;1.40;;;0.90;;
81374;SDS011;70828;51.158;4.998;2023-08-06T01:49:33;2.47;;;1.10;;
81374;SDS011;70828;51.158;4.998;2023-08-06T01:52:00;3.28;;;1.00;;
81374;SDS011;70828;51.158;4.998;2023-08-06T01:54:28;2.15;;;0.90;;
81374;SDS011;70828;51.158;4.998;2023-08-06T01:56:55;3.75;;;1.33;;
81374;SDS011;70828;51.158;4.998;2023-08-06T01:59:23;2.33;;;1.23;;
81374;SDS011;70828;51.158;4.998;2023-08-06T02:01:50;1.85;;;1.08;;
81374;SDS011;70828;51.158;4.998;2023-08-06T02:04:16;2.10;;;1.30;;
81374;SDS011;70828;51.158;4.998;2023-08-06T02:06:43;2.75;;;1.13;;
81374;SDS011;70828;51.158;4.998;2023-08-06T02:09:10;1.77;;;1.08;;
81374;SDS011;70828;51.158;4.998;2023-08-06T02:11:38;4.70;;;1.20;;
81374;SDS011;70828;51.158;4.998;2023-08-06T02:14:04;2.88;;;1.20;;
81374;SDS011;70828;51.158;4.998;2023-08-06T02:16:31;3.75;;;1.08;;
81374;SDS011;70828;51.158;4.998;2023-08-06T02:18:58;2.03;;;1.10;;
81374;SDS011;70828;51.158;4.998;2023-08-06T02:21:24;2.35;;;1.10;;
81374;SDS011;70828;51.158;4.998;2023-08-06T02:23:51;5.50;;;0.98;;
81374;SDS011;70828;51.158;4.998;2023-08-06T02:26:18;1.45;;;0.90;;
81374;SDS011;70828;51.158;4.998;2023-08-06T02:28:46;3.47;;;1.30;;
81374;SDS011;70828;51.158;4.998;2023-08-06T02:31:12;3.70;;;1.30;;
81374;SDS011;70828;51.158;4.998;2023-08-06T02:33:39;2.03;;;1.40;;
81374;SDS011;70828;51.158;4.998;2023-08-06T02:36:06;3.33;;;2.15;;
81374;SDS011;70828;51.158;4.998;2023-08-06T02:38:32;5.68;;;2.05;;
81374;SDS011;70828;51.158;4.998;2023-08-06T02:41:01;2.92;;;2.05;;
81374;SDS011;70828;51.158;4.998;2023-08-06T02:43:28;3.10;;;1.90;;
81374;SDS011;70828;51.158;4.998;2023-08-06T02:45:57;2.53;;;1.85;;
81374;SDS011;70828;51.158;4.998;2023-08-06T02:48:24;3.17;;;1.92;;
81374;SDS011;70828;51.158;4.998;2023-08-06T02:50:51;2.80;;;1.88;;
81374;SDS011;70828;51.158;4.998;2023-08-06T02:53:18;5.93;;;1.90;;
81374;SDS011;70828;51.158;4.998;2023-08-06T02:55:45;4.55;;;2.10;;
81374;SDS011;70828;51.158;4.998;2023-08-06T02:58:12;3.47;;;1.55;;
81374;SDS011;70828;51.158;4.998;2023-08-06T03:00:39;2.78;;;1.75;;
81374;SDS011;70828;51.158;4.998;2023-08-06T03:03:07;3.10;;;2.03;;
81374;SDS011;70828;51.158;4.998;2023-08-06T03:05:34;2.45;;;1.80;;
81374;SDS011;70828;51.158;4.998;2023-08-06T03:08:00;3.20;;;2.30;;
81374;SDS011;70828;51.158;4.998;2023-08-06T03:10:26;3.95;;;1.70;;
81374;SDS011;70828;51.158;4.998;2023-08-06T03:12:53;2.90;;;1.70;;
81374;SDS011;70828;51.158;4.998;2023-08-06T03:15:19;3.75;;;2.38;;
81374;SDS011;70828;51.158;4.998;2023-08-06T03:17:46;2.85;;;1.70;;
81374;SDS011;70828;51.158;4.998;2023-08-06T03:20:14;2.63;;;1.98;;
81374;SDS011;70828;51.158;4.998;2023-08-06T03:22:41;3.25;;;1.92;;
81374;SDS011;70828;51.158;4.998;2023-08-06T03:25:07;4.85;;;2.55;;
81374;SDS011;70828;51.158;4.998;2023-08-06T03:27:34;4.43;;;2.10;;
81374;SDS011;70828;51.158;4.998;2023-08-06T03:30:01;5.07;;;2.58;;
81374;SDS011;70828;51.158;4.998;2023-08-06T03:32:27;4.30;;;2.70;;
81374;SDS011;70828;51.158;4.998;2023-08-06T03:34:54;5.65;;;2.97;;
81374;SDS011;70828;51.158;4.998;2023-08-06T03:37:22;5.07;;;2.72;;
81374;SDS011;70828;51.158;4.998;2023-08-06T03:39:49;4.82;;;3.13;;
81374;SDS011;70828;51.158;4.998;2023-08-06T03:42:15;5.22;;;3.42;;
81374;SDS011;70828;51.158;4.998;2023-08-06T03:44:42;5.22;;;3.17;;
81374;SDS011;70828;51.158;4.998;2023-08-06T03:47:09;4.28;;;3.08;;
81374;SDS011;70828;51.158;4.998;2023-08-06T03:49:35;6.72;;;2.58;;
81374;SDS011;70828;51.158;4.998;2023-08-06T03:52:02;4.35;;;2.80;;
81374;SDS011;70828;51.158;4.998;2023-08-06T03:54:31;4.97;;;2.80;;
81374;SDS011;70828;51.158;4.998;2023-08-06T03:56:58;5.13;;;2.60;;
81374;SDS011;70828;51.158;4.998;2023-08-06T03:59:24;4.47;;;2.13;;
81374;SDS011;70828;51.158;4.998;2023-08-06T04:01:51;4.57;;;1.95;;
81374;SDS011;70828;51.158;4.998;2023-08-06T04:04:18;2.70;;;1.70;;
81374;SDS011;70828;51.158;4.998;2023-08-06T04:06:44;3.50;;;1.95;;
81374;SDS011;70828;51.158;4.998;2023-08-06T04:09:11;4.72;;;2.22;;
81374;SDS011;70828;51.158;4.998;2023-08-06T04:11:39;3.58;;;2.20;;
81374;SDS011;70828;51.158;4.998;2023-08-06T04:14:06;3.25;;;1.73;;
81374;SDS011;70828;51.158;4.998;2023-08-06T04:16:33;3.67;;;2.15;;
81374;SDS011;70828;51.158;4.998;2023-08-06T04:18:59;3.83;;;2.42;;
81374;SDS011;70828;51.158;4.998;2023-08-06T04:21:26;5.72;;;2.72;;
81374;SDS011;70828;51.158;4.998;2023-08-06T04:23:53;5.95;;;2.92;;
81374;SDS011;70828;51.158;4.998;2023-08-06T04:26:19;6.35;;;3.03;;
81374;SDS011;70828;51.158;4.998;2023-08-06T04:28:47;7.53;;;4.53;;
81374;SDS011;70828;51.158;4.998;2023-08-06T04:31:14;7.43;;;3.88;;
81374;SDS011;70828;51.158;4.998;2023-08-06T04:33:41;7.07;;;4.15;;
81374;SDS011;70828;51.158;4.998;2023-08-06T04:36:08;9.05;;;4.35;;
81374;SDS011;70828;51.158;4.998;2023-08-06T04:38:35;12.43;;;4.45;;
81374;SDS011;70828;51.158;4.998;2023-08-06T04:41:02;12.88;;;5.57;;
81374;SDS011;70828;51.158;4.998;2023-08-06T04:43:29;15.68;;;5.78;;
81374;SDS011;70828;51.158;4.998;2023-08-06T04:45:57;14.52;;;6.63;;
81374;SDS011;70828;51.158;4.998;2023-08-06T04:48:24;14.40;;;5.95;;
81374;SDS011;70828;51.158;4.998;2023-08-06T04:50:50;13.32;;;6.05;;
81374;SDS011;70828;51.158;4.998;2023-08-06T04:53:17;12.13;;;6.15;;
81374;SDS011;70828;51.158;4.998;2023-08-06T04:55:44;9.60;;;5.38;;
81374;SDS011;70828;51.158;4.998;2023-08-06T04:58:10;13.52;;;5.90;;
81374;SDS011;70828;51.158;4.998;2023-08-06T05:00:38;13.35;;;6.18;;
81374;SDS011;70828;51.158;4.998;2023-08-06T05:03:06;11.70;;;6.22;;
81374;SDS011;70828;51.158;4.998;2023-08-06T05:05:33;12.43;;;6.35;;
81374;SDS011;70828;51.158;4.998;2023-08-06T05:07:59;12.02;;;4.95;;
81374;SDS011;70828;51.158;4.998;2023-08-06T05:10:26;7.30;;;4.05;;
81374;SDS011;70828;51.158;4.998;2023-08-06T05:12:53;8.40;;;3.97;;
81374;SDS011;70828;51.158;4.998;2023-08-06T05:15:20;9.32;;;4.43;;
81374;SDS011;70828;51.158;4.998;2023-08-06T05:17:46;11.05;;;4.53;;
81374;SDS011;70828;51.158;4.998;2023-08-06T05:20:14;12.02;;;5.80;;
81374;SDS011;70828;51.158;4.998;2023-08-06T05:22:42;10.02;;;5.38;;
81374;SDS011;70828;51.158;4.998;2023-08-06T05:25:09;11.30;;;5.63;;
81374;SDS011;70828;51.158;4.998;2023-08-06T05:27:36;13.68;;;5.88;;
81374;SDS011;70828;51.158;4.998;2023-08-06T05:30:03;15.80;;;5.72;;
81374;SDS011;70828;51.158;4.998;2023-08-06T05:32:30;13.40;;;4.93;;
81374;SDS011;70828;51.158;4.998;2023-08-06T05:34:57;15.40;;;5.60;;
81374;SDS011;70828;51.158;4.998;2023-08-06T05:37:25;6.93;;;4.18;;
81374;SDS011;70828;51.158;4.998;2023-08-06T05:39:51;4.43;;;2.65;;
81374;SDS011;70828;51.158;4.998;2023-08-06T05:42:18;3.30;;;2.00;;
81374;SDS011;70828;51.158;4.998;2023-08-06T05:44:45;1.88;;;1.52;;
81374;SDS011;70828;51.158;4.998;2023-08-06T05:47:11;3.33;;;1.80;;
81374;SDS011;70828;51.158;4.998;2023-08-06T05:49:39;3.08;;;2.53;;
81374;SDS011;70828;51.158;4.998;2023-08-06T05:52:06;4.97;;;2.42;;
81374;SDS011;70828;51.158;4.998;2023-08-06T05:54:34;4.20;;;2.33;;
81374;SDS011;70828;51.158;4.998;2023-08-06T05:57:01;3.50;;;2.60;;
81374;SDS011;70828;51.158;4.998;2023-08-06T05:59:28;5.20;;;2.95;;
81374;SDS011;70828;51.158;4.998;2023-08-06T06:01:55;3.85;;;3.10;;
81374;SDS011;70828;51.158;4.998;2023-08-06T06:04:21;5.47;;;3.53;;
81374;SDS011;70828;51.158;4.998;2023-08-06T06:06:48;5.85;;;4.03;;
81374;SDS011;70828;51.158;4.998;2023-08-06T06:09:15;6.32;;;4.25;;
81374;SDS011;70828;51.158;4.998;2023-08-06T06:11:43;6.43;;;3.75;;
81374;SDS011;70828;51.158;4.998;2023-08-06T06:14:10;5.75;;;4.32;;
81374;SDS011;70828;51.158;4.998;2023-08-06T06:16:36;11.77;;;5.00;;
81374;SDS011;70828;51.158;4.998;2023-08-06T06:19:03;9.80;;;4.82;;
81374;SDS011;70828;51.158;4.998;2023-08-06T06:21:29;14.88;;;6.25;;
81374;SDS011;70828;51.158;4.998;2023-08-06T06:23:55;11.93;;;5.93;;
81374;SDS011;70828;51.158;4.998;2023-08-06T06:26:22;10.35;;;5.03;;
81374;SDS011;70828;51.158;4.998;2023-08-06T06:28:50;15.35;;;7.40;;
81374;SDS011;70828;51.158;4.998;2023-08-06T06:31:17;15.93;;;7.45;;
81374;SDS011;70828;51.158;4.998;2023-08-06T06:33:43;12.43;;;7.07;;
81374;SDS011;70828;51.158;4.998;2023-08-06T06:36:10;9.32;;;5.55;;
81374;SDS011;70828;51.158;4.998;2023-08-06T06:38:37;14.57;;;5.97;;
81374;SDS011;70828;51.158;4.998;2023-08-06T06:41:04;11.05;;;5.68;;
81374;SDS011;70828;51.158;4.998;2023-08-06T06:43:31;13.25;;;5.85;;
81374;SDS011;70828;51.158;4.998;2023-08-06T06:45:59;13.75;;;5.13;;
81374;SDS011;70828;51.158;4.998;2023-08-06T06:48:26;6.63;;;2.80;;
81374;SDS011;70828;51.158;4.998;2023-08-06T06:50:53;8.65;;;4.60;;
81374;SDS011;70828;51.158;4.998;2023-08-06T06:53:20;8.52;;;3.30;;
81374;SDS011;70828;51.158;4.998;2023-08-06T06:55:48;8.27;;;2.25;;
81374;SDS011;70828;51.158;4.998;2023-08-06T06:58:15;8.18;;;2.38;;
81374;SDS011;70828;51.158;4.998;2023-08-06T07:00:42;3.75;;;2.28;;
81374;SDS011;70828;51.158;4.998;2023-08-06T07:03:15;4.07;;;1.90;;
81374;SDS011;70828;51.158;4.998;2023-08-06T07:05:43;3.85;;;1.75;;
81374;SDS011;70828;51.158;4.998;2023-08-06T07:08:10;3.83;;;2.20;;
81374;SDS011;70828;51.158;4.998;2023-08-06T07:10:37;7.80;;;2.55;;
81374;SDS011;70828;51.158;4.998;2023-08-06T07:13:03;8.15;;;2.33;;
81374;SDS011;70828;51.158;4.998;2023-08-06T07:15:30;6.15;;;1.83;;
81374;SDS011;70828;51.158;4.998;2023-08-06T07:17:57;5.43;;;2.78;;
81374;SDS011;70828;51.158;4.998;2023-08-06T07:20:25;5.65;;;2.72;;
81374;SDS011;70828;51.158;4.998;2023-08-06T07:22:54;5.20;;;1.67;;
81374;SDS011;70828;51.158;4.998;2023-08-06T07:25:21;5.32;;;2.38;;
81374;SDS011;70828;51.158;4.998;2023-08-06T07:27:47;7.45;;;2.30;;
81374;SDS011;70828;51.158;4.998;2023-08-06T07:30:14;6.95;;;2.90;;
81374;SDS011;70828;51.158;4.998;2023-08-06T07:32:41;4.75;;;2.20;;
81374;SDS011;70828;51.158;4.998;2023-08-06T07:35:08;8.15;;;2.45;;
81374;SDS011;70828;51.158;4.998;2023-08-06T07:37:39;7.13;;;2.80;;
81374;SDS011;70828;51.158;4.998;2023-08-06T07:40:06;6.03;;;2.47;;
81374;SDS011;70828;51.158;4.998;2023-08-06T07:42:33;3.83;;;1.55;;
81374;SDS011;70828;51.158;4.998;2023-08-06T07:45:01;6.65;;;2.35;;
81374;SDS011;70828;51.158;4.998;2023-08-06T07:47:28;11.43;;;3.00;;
81374;SDS011;70828;51.158;4.998;2023-08-06T07:49:55;9.95;;;2.53;;
81374;SDS011;70828;51.158;4.998;2023-08-06T07:52:21;10.48;;;2.42;;
81374;SDS011;70828;51.158;4.998;2023-08-06T07:54:49;9.40;;;2.70;;
81374;SDS011;70828;51.158;4.998;2023-08-06T07:57:16;3.97;;;2.10;;
81374;SDS011;70828;51.158;4.998;2023-08-06T07:59:43;5.63;;;2.05;;
81374;SDS011;70828;51.158;4.998;2023-08-06T08:02:09;3.85;;;1.63;;
81374;SDS011;70828;51.158;4.998;2023-08-06T08:04:36;7.80;;;1.88;;
81374;SDS011;70828;51.158;4.998;2023-08-06T08:07:03;8.23;;;2.08;;
81374;SDS011;70828;51.158;4.998;2023-08-06T08:09:30;6.63;;;1.70;;
81374;SDS011;70828;51.158;4.998;2023-08-06T08:11:58;10.20;;;2.35;;
81374;SDS011;70828;51.158;4.998;2023-08-06T08:14:26;7.13;;;1.67;;
81374;SDS011;70828;51.158;4.998;2023-08-06T08:16:54;5.30;;;1.60;;
81374;SDS011;70828;51.158;4.998;2023-08-06T08:19:20;4.82;;;1.50;;
81374;SDS011;70828;51.158;4.998;2023-08-06T08:21:47;6.93;;;1.10;;
81374;SDS011;70828;51.158;4.998;2023-08-06T08:24:14;11.88;;;2.38;;
81374;SDS011;70828;51.158;4.998;2023-08-06T08:26:44;15.77;;;2.85;;
81374;SDS011;70828;51.158;4.998;2023-08-06T08:29:13;7.40;;;1.40;;
81374;SDS011;70828;51.158;4.998;2023-08-06T08:31:40;5.75;;;1.10;;
81374;SDS011;70828;51.158;4.998;2023-08-06T08:34:07;5.05;;;1.23;;
81374;SDS011;70828;51.158;4.998;2023-08-06T08:36:34;5.72;;;1.25;;
81374;SDS011;70828;51.158;4.998;2023-08-06T08:39:00;2.83;;;0.73;;
81374;SDS011;70828;51.158;4.998;2023-08-06T08:41:29;6.50;;;1.35;;
81374;SDS011;70828;51.158;4.998;2023-08-06T08:43:56;5.43;;;1.10;;
81374;SDS011;70828;51.158;4.998;2023-08-06T08:46:26;6.28;;;1.35;;
81374;SDS011;70828;51.158;4.998;2023-08-06T08:48:54;8.20;;;1.52;;
81374;SDS011;70828;51.158;4.998;2023-08-06T08:51:22;10.77;;;1.67;;
81374;SDS011;70828;51.158;4.998;2023-08-06T08:53:49;6.40;;;1.15;;
81374;SDS011;70828;51.158;4.998;2023-08-06T08:56:17;4.35;;;0.90;;
81374;SDS011;70828;51.158;4.998;2023-08-06T08:58:44;6.57;;;1.45;;
81374;SDS011;70828;51.158;4.998;2023-08-06T09:01:11;10.77;;;2.35;;
81374;SDS011;70828;51.158;4.998;2023-08-06T09:03:40;7.13;;;1.30;;
81374;SDS011;70828;51.158;4.998;2023-08-06T09:06:07;6.43;;;1.05;;
81374;SDS011;70828;51.158;4.998;2023-08-06T09:08:37;5.93;;;1.05;;
81374;SDS011;70828;51.158;4.998;2023-08-06T09:11:08;10.45;;;1.50;;
81374;SDS011;70828;51.158;4.998;2023-08-06T09:13:36;7.00;;;1.48;;
81374;SDS011;70828;51.158;4.998;2023-08-06T09:16:03;6.75;;;1.05;;
81374;SDS011;70828;51.158;4.998;2023-08-06T09:18:30;6.03;;;1.10;;
81374;SDS011;70828;51.158;4.998;2023-08-06T09:20:58;4.88;;;1.17;;
81374;SDS011;70828;51.158;4.998;2023-08-06T09:23:27;8.75;;;1.15;;
81374;SDS011;70828;51.158;4.998;2023-08-06T09:25:56;8.20;;;1.23;;
81374;SDS011;70828;51.158;4.998;2023-08-06T09:28:22;5.22;;;1.20;;
81374;SDS011;70828;51.158;4.998;2023-08-06T09:30:50;5.95;;;1.45;;
81374;SDS011;70828;51.158;4.998;2023-08-06T09:33:17;8.10;;;1.35;;
81374;SDS011;70828;51.158;4.998;2023-08-06T09:35:45;6.20;;;1.67;;
81374;SDS011;70828;51.158;4.998;2023-08-06T09:38:14;11.05;;;2.78;;
81374;SDS011;70828;51.158;4.998;2023-08-06T09:40:41;5.38;;;1.38;;
81374;SDS011;70828;51.158;4.998;2023-08-06T09:43:08;8.45;;;1.50;;
81374;SDS011;70828;51.158;4.998;2023-08-06T09:45:35;5.93;;;1.45;;
81374;SDS011;70828;51.158;4.998;2023-08-06T09:48:03;9.90;;;1.73;;
81374;SDS011;70828;51.158;4.998;2023-08-06T09:50:30;9.85;;;1.80;;
81374;SDS011;70828;51.158;4.998;2023-08-06T09:52:58;9.32;;;1.80;;
81374;SDS011;70828;51.158;4.998;2023-08-06T09:55:26;5.10;;;1.50;;
81374;SDS011;70828;51.158;4.998;2023-08-06T09:57:53;11.82;;;1.58;;
81374;SDS011;70828;51.158;4.998;2023-08-06T10:00:21;8.93;;;1.60;;
81374;SDS011;70828;51.158;4.998;2023-08-06T10:02:48;6.00;;;2.35;;
81374;SDS011;70828;51.158;4.998;2023-08-06T10:05:16;6.63;;;1.83;;
81374;SDS011;70828;51.158;4.998;2023-08-06T10:07:43;7.15;;;2.00;;
81374;SDS011;70828;51.158;4.998;2023-08-06T10:10:11;8.48;;;2.63;;
81374;SDS011;70828;51.158;4.998;2023-08-06T10:12:40;10.55;;;2.10;;
81374;SDS011;70828;51.158;4.998;2023-08-06T10:15:10;6.50;;;1.77;;
81374;SDS011;70828;51.158;4.998;2023-08-06T10:17:39;3.67;;;1.50;;
81374;SDS011;70828;51.158;4.998;2023-08-06T10:20:08;3.67;;;1.65;;
81374;SDS011;70828;51.158;4.998;2023-08-06T10:22:35;5.57;;;1.85;;
81374;SDS011;70828;51.158;4.998;2023-08-06T10:25:02;3.20;;;1.73;;
81374;SDS011;70828;51.158;4.998;2023-08-06T10:27:31;8.63;;;1.83;;
81374;SDS011;70828;51.158;4.998;2023-08-06T10:30:24;7.82;;;2.05;;
81374;SDS011;70828;51.158;4.998;2023-08-06T10:32:54;7.22;;;3.05;;
81374;SDS011;70828;51.158;4.998;2023-08-06T10:35:34;8.88;;;2.80;;
81374;SDS011;70828;51.158;4.998;2023-08-06T10:38:05;9.40;;;2.30;;
81374;SDS011;70828;51.158;4.998;2023-08-06T10:40:34;7.07;;;1.58;;
81374;SDS011;70828;51.158;4.998;2023-08-06T10:43:02;7.38;;;2.13;;
81374;SDS011;70828;51.158;4.998;2023-08-06T10:45:35;3.67;;;1.60;;
81374;SDS011;70828;51.158;4.998;2023-08-06T10:48:02;4.75;;;1.77;;
81374;SDS011;70828;51.158;4.998;2023-08-06T10:50:29;5.63;;;1.95;;
81374;SDS011;70828;51.158;4.998;2023-08-06T10:52:56;6.30;;;1.48;;
81374;SDS011;70828;51.158;4.998;2023-08-06T10:55:25;6.20;;;1.90;;
81374;SDS011;70828;51.158;4.998;2023-08-06T10:57:52;6.20;;;1.00;;
81374;SDS011;70828;51.158;4.998;2023-08-06T11:00:20;5.15;;;1.02;;
81374;SDS011;70828;51.158;4.998;2023-08-06T11:02:49;7.60;;;1.25;;
81374;SDS011;70828;51.158;4.998;2023-08-06T11:05:16;6.63;;;2.03;;
81374;SDS011;70828;51.158;4.998;2023-08-06T11:07:43;7.00;;;0.70;;
81374;SDS011;70828;51.158;4.998;2023-08-06T11:10:10;4.53;;;0.82;;
81374;SDS011;70828;51.158;4.998;2023-08-06T11:12:38;5.80;;;0.70;;
81374;SDS011;70828;51.158;4.998;2023-08-06T11:15:05;8.43;;;0.98;;
81374;SDS011;70828;51.158;4.998;2023-08-06T11:17:33;5.43;;;1.27;;
81374;SDS011;70828;51.158;4.998;2023-08-06T11:20:02;3.22;;;0.82;;
81374;SDS011;70828;51.158;4.998;2023-08-06T11:22:30;5.65;;;1.00;;
81374;SDS011;70828;51.158;4.998;2023-08-06T11:24:57;1.42;;;0.70;;
81374;SDS011;70828;51.158;4.998;2023-08-06T11:27:26;4.55;;;1.00;;
81374;SDS011;70828;51.158;4.998;2023-08-06T11:29:53;3.25;;;0.95;;
81374;SDS011;70828;51.158;4.998;2023-08-06T11:32:20;5.18;;;0.75;;
81374;SDS011;70828;51.158;4.998;2023-08-06T11:34:47;3.67;;;0.90;;
81374;SDS011;70828;51.158;4.998;2023-08-06T11:37:15;4.55;;;0.52;;
81374;SDS011;70828;51.158;4.998;2023-08-06T11:39:46;4.22;;;0.95;;
81374;SDS011;70828;51.158;4.998;2023-08-06T11:42:13;4.32;;;0.65;;
81374;SDS011;70828;51.158;4.998;2023-08-06T11:44:40;3.63;;;0.70;;
81374;SDS011;70828;51.158;4.998;2023-08-06T11:47:11;2.78;;;0.73;;
81374;SDS011;70828;51.158;4.998;2023-08-06T11:49:39;6.20;;;1.08;;
81374;SDS011;70828;51.158;4.998;2023-08-06T11:52:20;6.13;;;1.13;;
81374;SDS011;70828;51.158;4.998;2023-08-06T11:54:59;6.85;;;0.88;;
81374;SDS011;70828;51.158;4.998;2023-08-06T11:57:28;2.75;;;0.75;;
81374;SDS011;70828;51.158;4.998;2023-08-06T11:59:58;4.25;;;0.77;;
81374;SDS011;70828;51.158;4.998;2023-08-06T12:02:28;3.72;;;0.80;;
81374;SDS011;70828;51.158;4.998;2023-08-06T12:05:00;3.42;;;1.15;;
81374;SDS011;70828;51.158;4.998;2023-08-06T12:09:56;5.25;;;0.90;;
81374;SDS011;70828;51.158;4.998;2023-08-06T12:12:23;2.38;;;0.88;;
81374;SDS011;70828;51.158;4.998;2023-08-06T12:14:50;4.80;;;1.33;;
81374;SDS011;70828;51.158;4.998;2023-08-06T12:17:17;4.43;;;0.90;;
81374;SDS011;70828;51.158;4.998;2023-08-06T12:19:44;2.88;;;0.73;;
81374;SDS011;70828;51.158;4.998;2023-08-06T12:22:12;3.50;;;1.02;;
81374;SDS011;70828;51.158;4.998;2023-08-06T12:24:41;3.70;;;0.68;;
81374;SDS011;70828;51.158;4.998;2023-08-06T12:27:07;4.95;;;1.10;;
81374;SDS011;70828;51.158;4.998;2023-08-06T12:29:34;1.33;;;0.73;;
81374;SDS011;70828;51.158;4.998;2023-08-06T12:32:01;4.43;;;1.23;;
81374;SDS011;70828;51.158;4.998;2023-08-06T12:34:28;2.35;;;1.00;;
81374;SDS011;70828;51.158;4.998;2023-08-06T12:36:55;2.08;;;0.88;;
81374;SDS011;70828;51.158;4.998;2023-08-06T12:39:21;6.75;;;1.27;;
81374;SDS011;70828;51.158;4.998;2023-08-06T12:41:49;4.80;;;1.17;;
81374;SDS011;70828;51.158;4.998;2023-08-06T12:44:16;3.10;;;1.30;;
81374;SDS011;70828;51.158;4.998;2023-08-06T12:46:43;6.35;;;1.70;;
81374;SDS011;70828;51.158;4.998;2023-08-06T12:49:10;9.95;;;2.58;;
81374;SDS011;70828;51.158;4.998;2023-08-06T12:51:36;5.78;;;2.20;;
81374;SDS011;70828;51.158;4.998;2023-08-06T12:54:03;6.28;;;1.98;;
81374;SDS011;70828;51.158;4.998;2023-08-06T12:56:30;9.38;;;1.42;;
81374;SDS011;70828;51.158;4.998;2023-08-06T12:58:58;4.28;;;1.25;;
81374;SDS011;70828;51.158;4.998;2023-08-06T13:01:25;6.45;;;1.50;;
81374;SDS011;70828;51.158;4.998;2023-08-06T13:03:52;6.72;;;1.60;;
81374;SDS011;70828;51.158;4.998;2023-08-06T13:06:19;10.23;;;1.70;;
81374;SDS011;70828;51.158;4.998;2023-08-06T13:08:45;8.13;;;1.73;;
81374;SDS011;70828;51.158;4.998;2023-08-06T13:11:12;10.07;;;1.65;;
81374;SDS011;70828;51.158;4.998;2023-08-06T13:13:39;8.23;;;1.83;;
81374;SDS011;70828;51.158;4.998;2023-08-06T13:16:07;5.68;;;0.90;;
81374;SDS011;70828;51.158;4.998;2023-08-06T13:18:34;6.28;;;0.90;;
81374;SDS011;70828;51.158;4.998;2023-08-06T13:21:00;2.13;;;0.60;;
81374;SDS011;70828;51.158;4.998;2023-08-06T13:23:27;1.85;;;0.60;;
81374;SDS011;70828;51.158;4.998;2023-08-06T13:25:54;4.20;;;0.90;;
81374;SDS011;70828;51.158;4.998;2023-08-06T13:28:20;3.05;;;0.60;;
81374;SDS011;70828;51.158;4.998;2023-08-06T13:30:47;2.33;;;0.77;;
81374;SDS011;70828;51.158;4.998;2023-08-06T13:33:15;3.28;;;0.75;;
81374;SDS011;70828;51.158;4.998;2023-08-06T13:35:42;2.47;;;0.70;;
81374;SDS011;70828;51.158;4.998;2023-08-06T13:38:08;2.55;;;0.90;;
81374;SDS011;70828;51.158;4.998;2023-08-06T13:40:35;4.20;;;1.13;;
81374;SDS011;70828;51.158;4.998;2023-08-06T13:43:02;4.47;;;0.98;;
81374;SDS011;70828;51.158;4.998;2023-08-06T13:45:29;4.15;;;1.20;;
81374;SDS011;70828;51.158;4.998;2023-08-06T13:47:57;4.45;;;1.25;;
81374;SDS011;70828;51.158;4.998;2023-08-06T13:50:25;6.18;;;1.30;;
81374;SDS011;70828;51.158;4.998;2023-08-06T13:52:52;3.78;;;1.10;;
81374;SDS011;70828;51.158;4.998;2023-08-06T13:55:20;7.22;;;1.30;;
81374;SDS011;70828;51.158;4.998;2023-08-06T13:57:47;7.97;;;1.00;;
81374;SDS011;70828;51.158;4.998;2023-08-06T14:00:14;6.82;;;0.82;;
81374;SDS011;70828;51.158;4.998;2023-08-06T14:02:41;4.22;;;0.68;;
81374;SDS011;70828;51.158;4.998;2023-08-06T14:05:09;4.18;;;1.40;;
81374;SDS011;70828;51.158;4.998;2023-08-06T14:07:37;1.92;;;0.30;;
81374;SDS011;70828;51.158;4.998;2023-08-06T14:10:04;3.17;;;0.60;;
81374;SDS011;70828;51.158;4.998;2023-08-06T14:12:31;0.88;;;0.75;;
81374;SDS011;70828;51.158;4.998;2023-08-06T14:14:58;4.70;;;0.60;;
81374;SDS011;70828;51.158;4.998;2023-08-06T14:17:25;3.40;;;0.70;;
81374;SDS011;70828;51.158;4.998;2023-08-06T14:19:52;2.15;;;0.50;;
81374;SDS011;70828;51.158;4.998;2023-08-06T14:22:18;1.45;;;0.40;;
81374;SDS011;70828;51.158;4.998;2023-08-06T14:24:46;0.63;;;0.15;;
81374;SDS011;70828;51.158;4.998;2023-08-06T14:27:13;7.70;;;0.60;;
81374;SDS011;70828;51.158;4.998;2023-08-06T14:29:40;2.10;;;0.30;;
81374;SDS011;70828;51.158;4.998;2023-08-06T14:32:07;3.58;;;0.40;;
81374;SDS011;70828;51.158;4.998;2023-08-06T14:34:33;5.25;;;1.23;;
81374;SDS011;70828;51.158;4.998;2023-08-06T14:37:00;2.58;;;0.50;;
81374;SDS011;70828;51.158;4.998;2023-08-06T14:39:27;4.25;;;0.40;;
81374;SDS011;70828;51.158;4.998;2023-08-06T14:41:55;2.75;;;0.80;;
81374;SDS011;70828;51.158;4.998;2023-08-06T14:44:21;7.50;;;1.15;;
81374;SDS011;70828;51.158;4.998;2023-08-06T14:46:48;3.47;;;0.52;;
81374;SDS011;70828;51.158;4.998;2023-08-06T14:49:15;3.40;;;1.15;;